Time;durP1;ratioP1;P1;durP2;ratioP2;P2;SDS_P1;SDS_P2;PMS_P1;PMS_P2;Temp;Humidity;BMP_temperature;BMP_pressure;BME280_temperature;BME280_humidity;BME280_pressure;Samples;Min_cycle;Max_cycle;Signal;HPM_P1;HPM_P2
2022/05/29 00:01:46;;;;;;;2.75;1.27;;;19.00;51.50;;;;;;5052550;28;20309;-73
2022/05/29 00:04:12;;;;;;;3.63;1.10;;;19.10;51.60;;;;;;5052058;28;20210;-73
2022/05/29 00:06:39;;;;;;;2.22;1.10;;;19.00;51.50;;;;;;5052589;28;20178;-73
2022/05/29 00:09:04;;;;;;;2.42;1.10;;;19.00;51.50;;;;;;5051873;28;20183;-72
2022/05/29 00:11:30;;;;;;;2.55;1.10;;;19.00;51.50;;;;;;5051121;28;20257;-72
2022/05/29 00:14:00;;;;;;;2.63;1.40;;;19.00;51.50;;;;;;5051221;28;20178;-71
2022/05/29 00:16:26;;;;;;;3.25;1.35;;;19.00;51.40;;;;;;5052636;28;20703;-71
2022/05/29 00:18:52;;;;;;;1.33;0.93;;;19.00;51.30;;;;;;5051740;28;20179;-71
2022/05/29 00:21:17;;;;;;;2.90;1.52;;;19.00;51.40;;;;;;5052891;28;20254;-71
2022/05/29 00:23:43;;;;;;;2.35;1.40;;;19.00;51.50;;;;;;5052525;28;20528;-70
2022/05/29 00:26:08;;;;;;;2.95;1.30;;;19.00;51.40;;;;;;5050831;28;20194;-71
2022/05/29 00:28:34;;;;;;;3.50;1.13;;;18.90;51.30;;;;;;5052908;28;20174;-72
2022/05/29 00:31:00;;;;;;;3.63;1.58;;;18.90;51.30;;;;;;5052588;28;20178;-73
2022/05/29 00:33:25;;;;;;;3.08;1.17;;;18.90;51.20;;;;;;5051692;28;20174;-73
2022/05/29 00:35:52;;;;;;;1.17;0.90;;;18.90;51.30;;;;;;5052191;28;20183;-73
2022/05/29 00:38:17;;;;;;;1.92;1.33;;;18.90;51.30;;;;;;5052336;28;20178;-73
2022/05/29 00:40:50;;;;;;;2.88;1.17;;;18.90;51.30;;;;;;5051531;28;20171;-73
2022/05/29 00:43:16;;;;;;;3.80;1.55;;;18.90;51.30;;;;;;5051252;28;20180;-72
2022/05/29 00:45:58;;;;;;;3.03;1.42;;;18.90;51.20;;;;;;5052128;28;20217;-72
2022/05/29 00:48:25;;;;;;;4.07;1.67;;;18.90;51.30;;;;;;5051760;28;20253;-71
2022/05/29 00:50:52;;;;;;;2.53;1.40;;;18.90;51.30;;;;;;5052201;28;20189;-71
2022/05/29 00:53:17;;;;;;;2.38;1.13;;;18.90;51.40;;;;;;5052530;28;20175;-71
2022/05/29 00:55:49;;;;;;;2.38;1.20;;;18.90;51.40;;;;;;5050085;28;20228;-72
2022/05/29 00:58:15;;;;;;;3.08;1.67;;;18.90;51.40;;;;;;5052226;28;20179;-73
2022/05/29 01:00:40;;;;;;;2.60;1.30;;;18.80;51.50;;;;;;5049815;28;20717;-73
2022/05/29 01:03:06;;;;;;;3.15;1.20;;;18.90;51.50;;;;;;5050901;28;20623;-73
2022/05/29 01:05:33;;;;;;;3.28;1.20;;;18.90;51.60;;;;;;5052217;28;20700;-73
2022/05/29 01:08:04;;;;;;;1.67;1.02;;;18.90;51.60;;;;;;5051289;28;20175;-72
2022/05/29 01:10:46;;;;;;;3.03;1.25;;;18.80;51.60;;;;;;5051129;28;20224;-72
2022/05/29 01:13:19;;;;;;;2.30;1.00;;;18.80;51.60;;;;;;5052594;28;20280;-71
2022/05/29 01:16:15;;;;;;;2.00;1.20;;;18.80;51.70;;;;;;5051251;28;20179;-71
2022/05/29 01:18:44;;;;;;;3.03;1.20;;;18.80;51.70;;;;;;5055900;28;20223;-71
2022/05/29 01:21:10;;;;;;;2.58;1.10;;;18.80;51.80;;;;;;5055917;28;20622;-71
2022/05/29 01:23:46;;;;;;;2.22;1.20;;;18.80;51.80;;;;;;5054926;28;20336;-70
2022/05/29 01:26:39;;;;;;;2.75;1.10;;;18.80;51.80;;;;;;5055020;28;20236;-71
2022/05/29 01:29:05;;;;;;;2.65;1.10;;;18.70;51.90;;;;;;5055281;28;20224;-71
2022/05/29 01:31:52;;;;;;;2.00;1.23;;;18.70;51.90;;;;;;5054780;28;20186;-72
2022/05/29 01:34:28;;;;;;;3.50;1.50;;;18.80;52.00;;;;;;5054865;28;20175;-73
2022/05/29 01:37:09;;;;;;;2.97;1.30;;;18.70;52.00;;;;;;5053778;28;20178;-73
2022/05/29 01:39:56;;;;;;;2.55;1.20;;;18.80;52.00;;;;;;5055493;28;20196;-73
2022/05/29 01:42:50;;;;;;;1.98;1.00;;;18.70;51.90;;;;;;5054431;28;20618;-72
2022/05/29 01:45:54;;;;;;;3.35;1.50;;;18.70;52.00;;;;;;5054539;28;20214;-72
2022/05/29 01:48:32;;;;;;;2.10;1.27;;;18.70;52.10;;;;;;5054442;28;20178;-71
2022/05/29 01:50:59;;;;;;;1.95;1.02;;;18.70;52.10;;;;;;5054639;28;20213;-71
2022/05/29 01:53:38;;;;;;;3.63;1.73;;;18.70;52.20;;;;;;5054155;28;20646;-71
2022/05/29 01:56:12;;;;;;;2.00;1.20;;;18.70;52.10;;;;;;5054430;28;20175;-72
2022/05/29 01:58:40;;;;;;;2.58;1.05;;;18.70;52.20;;;;;;5053252;28;20259;-73
2022/05/29 02:01:06;;;;;;;1.90;1.08;;;18.70;52.20;;;;;;5053801;28;20227;-73
2022/05/29 02:03:34;;;;;;;2.50;1.13;;;18.70;52.90;;;;;;5054190;28;20207;-73
2022/05/29 02:06:04;;;;;;;2.40;1.38;;;18.60;52.20;;;;;;5053515;28;20183;-73
2022/05/29 02:08:46;;;;;;;2.80;1.60;;;18.60;52.30;;;;;;5054020;28;20175;-72
2022/05/29 02:11:20;;;;;;;2.25;1.20;;;18.60;52.30;;;;;;5054525;28;20262;-72
2022/05/29 02:13:49;;;;;;;3.15;1.65;;;18.70;52.30;;;;;;5053836;28;20175;-71
2022/05/29 02:16:20;;;;;;;2.80;1.30;;;18.60;52.30;;;;;;5053906;28;20186;-70
2022/05/29 02:18:55;;;;;;;4.05;1.33;;;18.60;52.30;;;;;;5052907;28;20171;-70
2022/05/29 02:21:29;;;;;;;2.80;1.60;;;18.60;52.30;;;;;;5053974;28;20178;-71
2022/05/29 02:23:55;;;;;;;2.97;1.40;;;18.60;52.30;;;;;;5052399;28;20219;-69
2022/05/29 02:26:28;;;;;;;3.35;1.30;;;18.60;52.30;;;;;;5052274;28;20187;-70
2022/05/29 02:28:57;;;;;;;5.53;1.85;;;18.60;52.30;;;;;;5052544;28;20278;-71
2022/05/29 02:31:41;;;;;;;2.60;1.60;;;18.60;53.00;;;;;;5052790;28;20175;-72
2022/05/29 02:34:18;;;;;;;1.42;1.20;;;18.60;52.40;;;;;;5051617;28;20179;-73
2022/05/29 02:37:16;;;;;;;3.40;1.42;;;18.60;52.40;;;;;;5052265;28;20186;-73
2022/05/29 02:40:00;;;;;;;2.85;1.38;;;18.60;52.40;;;;;;5051573;28;20274;-73
2022/05/29 02:42:53;;;;;;;2.30;1.50;;;18.60;52.40;;;;;;5052443;28;20176;-72
2022/05/29 02:45:46;;;;;;;3.20;1.50;;;18.60;52.30;;;;;;5054034;28;20246;-72
2022/05/29 02:48:32;;;;;;;2.85;1.27;;;18.60;52.40;;;;;;5050609;28;20183;-71
2022/05/29 02:51:18;;;;;;;3.22;1.38;;;18.60;52.40;;;;;;5053429;28;20171;-71
2022/05/29 02:53:44;;;;;;;2.90;1.10;;;18.60;52.60;;;;;;5052731;28;20199;-72
2022/05/29 02:56:10;;;;;;;1.75;1.13;;;18.50;52.50;;;;;;5053586;28;20537;-73
2022/05/29 02:58:36;;;;;;;2.72;1.20;;;18.50;52.60;;;;;;5053246;28;20178;-74
2022/05/29 03:01:18;;;;;;;2.22;1.20;;;18.50;52.60;;;;;;5051118;28;20716;-73
2022/05/29 03:03:57;;;;;;;3.65;1.42;;;18.50;52.70;;;;;;5051735;28;20622;-73
2022/05/29 03:06:49;;;;;;;2.63;1.25;;;18.50;52.60;;;;;;5052174;28;20697;-73
2022/05/29 03:09:51;;;;;;;5.00;1.83;;;18.50;52.70;;;;;;5051556;28;20171;-72
2022/05/29 03:12:34;;;;;;;2.45;1.48;;;18.50;52.70;;;;;;5052363;28;20253;-72
2022/05/29 03:15:03;;;;;;;2.80;1.50;;;18.50;52.70;;;;;;5051328;28;20630;-71
2022/05/29 03:17:40;;;;;;;2.35;1.58;;;18.50;52.70;;;;;;5053342;28;20180;-71
2022/05/29 03:20:22;;;;;;;1.83;1.35;;;18.50;52.70;;;;;;5052879;28;20615;-71
2022/05/29 03:22:53;;;;;;;3.40;1.88;;;18.50;52.70;;;;;;5051170;28;20175;-71
2022/05/29 03:25:22;;;;;;;1.83;1.35;;;18.50;52.70;;;;;;5051790;28;20250;-71
2022/05/29 03:27:48;;;;;;;1.70;1.02;;;18.40;52.70;;;;;;5051823;28;20171;-72
2022/05/29 03:30:23;;;;;;;3.90;1.67;;;18.50;52.80;;;;;;5051146;28;20266;-73
2022/05/29 03:32:50;;;;;;;3.85;1.75;;;18.50;52.80;;;;;;5051465;28;20857;-73
2022/05/29 03:35:23;;;;;;;4.22;1.50;;;18.40;52.80;;;;;;5050854;28;20289;-73
2022/05/29 03:37:49;;;;;;;2.85;1.70;;;18.40;52.70;;;;;;5052359;28;20174;-73
2022/05/29 03:40:14;;;;;;;4.40;1.38;;;18.40;52.70;;;;;;5052731;28;20254;-73
2022/05/29 03:42:40;;;;;;;2.25;1.40;;;18.40;52.80;;;;;;5051829;28;20642;-71
2022/05/29 03:45:06;;;;;;;1.90;1.45;;;18.40;52.80;;;;;;5052795;28;20215;-71
2022/05/29 03:47:32;;;;;;;1.38;0.98;;;18.40;52.80;;;;;;5052535;28;20503;-71
2022/05/29 03:49:58;;;;;;;3.55;1.20;;;18.40;52.80;;;;;;5051754;28;20175;-71
2022/05/29 03:52:23;;;;;;;2.58;1.30;;;18.40;52.80;;;;;;5052468;28;20190;-70
2022/05/29 03:54:52;;;;;;;2.22;1.27;;;18.40;52.80;;;;;;5051899;28;20591;-72
2022/05/29 03:57:17;;;;;;;2.85;1.58;;;18.40;52.80;;;;;;5051588;28;20182;-73
2022/05/29 03:59:43;;;;;;;2.67;1.40;;;18.40;52.80;;;;;;5051695;28;20266;-73
2022/05/29 04:02:09;;;;;;;3.13;1.27;;;18.40;52.90;;;;;;5052649;28;20270;-73
2022/05/29 04:04:34;;;;;;;2.38;1.48;;;18.40;53.00;;;;;;5051579;28;20244;-74
2022/05/29 04:07:00;;;;;;;4.45;1.45;;;18.40;52.80;;;;;;5052456;28;20650;-73
2022/05/29 04:12:13;;;;;;;4.05;1.38;;;18.40;52.90;;;;;;5051366;28;20657;-71
2022/05/29 04:14:40;;;;;;;3.92;1.48;;;18.40;53.00;;;;;;5051835;28;20175;-71
2022/05/29 04:17:06;;;;;;;2.33;1.27;;;18.40;52.90;;;;;;5052285;28;20175;-70
2022/05/29 04:19:32;;;;;;;2.08;1.27;;;18.40;53.00;;;;;;5051414;28;20182;-71
2022/05/29 04:21:57;;;;;;;3.08;1.45;;;18.40;52.90;;;;;;5051966;28;20171;-71
2022/05/29 04:24:23;;;;;;;5.55;1.65;;;18.40;52.90;;;;;;5051925;28;20520;-70
2022/05/29 04:26:51;;;;;;;2.42;1.23;;;18.40;52.90;;;;;;5051161;28;20676;-71
2022/05/29 04:29:18;;;;;;;3.85;1.20;;;18.40;52.90;;;;;;5052285;28;20179;-72
2022/05/29 04:32:59;;;;;;;2.83;1.33;;;18.40;53.00;;;;;;5050931;28;20175;-73
2022/05/29 04:34:29;;;;;;;2.83;1.60;;;18.40;53.00;;;;;;5051810;28;20175;-74
2022/05/29 04:36:54;;;;;;;3.20;1.20;;;18.40;53.10;;;;;;5051464;28;20692;-73
2022/05/29 04:39:20;;;;;;;2.60;1.13;;;18.30;53.00;;;;;;5050938;28;20175;-73
2022/05/29 04:41:45;;;;;;;4.05;1.40;;;18.30;53.00;;;;;;5051733;28;20175;-72
2022/05/29 04:44:11;;;;;;;4.47;1.52;;;18.30;53.10;;;;;;5051774;28;20211;-71
2022/05/29 04:46:36;;;;;;;2.10;1.20;;;18.30;53.20;;;;;;5050905;28;20163;-71
2022/05/29 04:49:05;;;;;;;3.08;1.40;;;18.30;53.20;;;;;;5051631;28;20194;-70
2022/05/29 04:51:30;;;;;;;2.90;1.45;;;18.30;53.20;;;;;;5051593;28;20171;-70
2022/05/29 04:53:56;;;;;;;1.42;1.30;;;18.30;53.20;;;;;;5050434;28;20179;-71
2022/05/29 04:56:21;;;;;;;1.45;1.27;;;18.30;53.20;;;;;;5051502;28;20525;-72
2022/05/29 04:58:47;;;;;;;3.83;1.48;;;18.30;53.20;;;;;;5051557;28;20179;-73
2022/05/29 05:01:12;;;;;;;1.75;1.38;;;18.30;53.20;;;;;;5050938;28;20223;-73
2022/05/29 05:03:38;;;;;;;2.10;1.30;;;18.30;53.30;;;;;;5051083;28;20203;-73
2022/05/29 05:06:03;;;;;;;1.83;1.27;;;18.30;53.30;;;;;;5051577;28;20622;-73
2022/05/29 05:08:29;;;;;;;3.25;1.40;;;18.30;53.20;;;;;;5050620;28;20218;-72
2022/05/29 05:10:54;;;;;;;3.40;1.73;;;18.30;53.20;;;;;;5050865;28;20175;-72
2022/05/29 05:13:20;;;;;;;1.95;1.17;;;18.20;53.20;;;;;;5051358;28;20224;-71
2022/05/29 05:15:45;;;;;;;3.58;1.23;;;18.30;53.30;;;;;;5050378;28;20175;-71
2022/05/29 05:18:11;;;;;;;2.45;1.50;;;18.20;53.20;;;;;;5051478;28;20171;-70
2022/05/29 05:20:37;;;;;;;2.70;1.25;;;18.20;53.30;;;;;;5051196;28;20225;-71
2022/05/29 05:23:03;;;;;;;2.35;1.80;;;18.30;53.30;;;;;;5050569;28;20669;-71
2022/05/29 05:25:28;;;;;;;2.42;1.10;;;18.30;53.30;;;;;;5051501;28;20211;-71
2022/05/29 05:27:54;;;;;;;1.50;1.00;;;18.20;53.40;;;;;;5050549;28;20287;-72
2022/05/29 05:30:19;;;;;;;2.80;1.15;;;18.20;53.40;;;;;;5051384;28;20179;-73
2022/05/29 05:32:45;;;;;;;2.05;1.38;;;18.30;53.50;;;;;;5050955;28;20214;-73
2022/05/29 05:35:10;;;;;;;2.92;1.10;;;18.30;53.60;;;;;;5050344;28;20179;-73
2022/05/29 05:37:37;;;;;;;2.97;1.27;;;18.20;53.50;;;;;;5050859;28;20174;-73
2022/05/29 05:40:08;;;;;;;2.88;1.30;;;18.20;53.50;;;;;;5051539;28;20182;-73
2022/05/29 05:42:37;;;;;;;3.75;1.45;;;18.30;53.60;;;;;;5050304;28;20703;-72
2022/05/29 05:45:07;;;;;;;1.83;1.00;;;18.30;53.60;;;;;;5051314;28;20439;-73
2022/05/29 05:47:33;;;;;;;1.50;0.80;;;18.30;53.60;;;;;;5051201;28;20186;-71
2022/05/29 05:49:58;;;;;;;2.20;1.15;;;18.20;53.50;;;;;;5050065;28;20179;-71
2022/05/29 05:52:23;;;;;;;1.73;1.20;;;18.20;53.80;;;;;;5051411;28;20179;-71
2022/05/29 05:54:49;;;;;;;1.75;1.23;;;18.30;53.80;;;;;;5050816;28;20175;-72
2022/05/29 05:57:17;;;;;;;2.83;1.42;;;18.20;53.60;;;;;;5050418;28;20460;-73
2022/05/29 05:59:43;;;;;;;1.27;1.00;;;18.30;53.70;;;;;;5050676;28;20207;-74
2022/05/29 06:02:11;;;;;;;3.33;1.27;;;18.20;53.60;;;;;;5052923;28;20676;-74
2022/05/29 06:04:41;;;;;;;3.38;1.38;;;18.20;53.70;;;;;;5053605;28;20217;-74
2022/05/29 06:07:07;;;;;;;1.63;1.20;;;18.30;53.80;;;;;;5054598;28;20630;-72
2022/05/29 06:09:33;;;;;;;1.50;1.02;;;18.30;53.80;;;;;;5054786;28;20277;-72
2022/05/29 06:11:59;;;;;;;1.98;1.13;;;18.30;53.80;;;;;;5053592;28;20194;-72
2022/05/29 06:14:24;;;;;;;5.45;1.45;;;18.30;53.80;;;;;;5054490;28;20630;-71
2022/05/29 06:16:50;;;;;;;1.77;1.20;;;18.30;53.80;;;;;;5054188;28;20176;-71
2022/05/29 06:19:15;;;;;;;2.08;1.17;;;18.30;53.80;;;;;;5053411;28;20182;-71
2022/05/29 06:21:41;;;;;;;2.90;1.27;;;18.30;53.90;;;;;;5054274;28;20171;-71
2022/05/29 06:24:06;;;;;;;3.63;1.35;;;18.30;53.90;;;;;;5053743;28;20214;-70
2022/05/29 06:26:32;;;;;;;3.90;1.40;;;18.40;54.00;;;;;;5054431;28;20191;-72
2022/05/29 06:28:57;;;;;;;3.80;1.60;;;18.40;54.00;;;;;;5054214;28;20269;-72
2022/05/29 06:31:23;;;;;;;4.07;1.63;;;18.40;54.10;;;;;;5053886;28;20167;-73
2022/05/29 06:33:49;;;;;;;5.40;1.42;;;18.30;54.20;;;;;;5054187;28;20273;-73
2022/05/29 06:36:16;;;;;;;3.20;1.40;;;18.30;54.20;;;;;;5054881;28;20491;-73
2022/05/29 06:38:42;;;;;;;3.25;1.15;;;18.40;54.40;;;;;;5053650;28;20254;-74
2022/05/29 06:41:08;;;;;;;3.30;1.40;;;18.30;54.40;;;;;;5054514;28;20258;-70
2022/05/29 06:43:34;;;;;;;3.08;1.02;;;18.30;55.10;;;;;;5054326;28;20171;-70
2022/05/29 06:46:00;;;;;;;2.60;1.45;;;18.40;54.60;;;;;;5053643;28;20221;-70
2022/05/29 06:48:25;;;;;;;14.80;1.98;;;18.40;54.70;;;;;;5054017;28;20638;-70
2022/05/29 06:50:51;;;;;;;2.38;1.27;;;18.40;54.90;;;;;;5053904;28;20214;-69
2022/05/29 06:53:16;;;;;;;2.08;1.10;;;18.40;54.70;;;;;;5053239;28;20171;-69
2022/05/29 06:55:53;;;;;;;3.58;1.33;;;18.40;54.70;;;;;;5053653;28;20175;-70
2022/05/29 06:58:18;;;;;;;2.28;0.93;;;18.50;54.80;;;;;;5053985;28;20178;-71
2022/05/29 07:08:56;;;;;;;6.70;1.23;;;18.50;55.20;;;;;;5053463;28;20752;-66
2022/05/29 07:11:23;;;;;;;5.80;1.25;;;18.50;55.00;;;;;;5053619;28;20198;-66
2022/05/29 07:13:49;;;;;;;4.13;1.52;;;18.60;54.90;;;;;;5050615;28;20277;-67
2022/05/29 07:16:17;;;;;;;3.67;1.20;;;18.60;55.00;;;;;;5052467;28;20507;-67
2022/05/29 07:18:43;;;;;;;4.93;1.40;;;18.60;54.90;;;;;;5053371;28;20182;-69
2022/05/29 07:21:08;;;;;;;6.15;1.48;;;18.60;55.00;;;;;;5052804;28;20167;-68
2022/05/29 07:23:34;;;;;;;2.92;1.05;;;18.70;55.20;;;;;;5053263;28;20179;-68
2022/05/29 07:26:00;;;;;;;5.22;1.30;;;18.70;55.20;;;;;;5053352;28;20209;-69
2022/05/29 07:28:25;;;;;;;3.63;1.10;;;18.70;55.00;;;;;;5052528;28;20175;-69
2022/05/29 07:30:51;;;;;;;5.60;1.52;;;18.70;55.20;;;;;;5052999;28;20175;-67
2022/05/29 07:33:17;;;;;;;2.90;1.15;;;18.70;55.20;;;;;;5053316;28;20178;-69
2022/05/29 07:35:42;;;;;;;2.25;1.20;;;18.70;55.10;;;;;;5052143;28;20205;-69
2022/05/29 07:38:08;;;;;;;2.35;1.20;;;18.70;55.20;;;;;;5053047;28;20515;-69
2022/05/29 07:40:34;;;;;;;4.10;1.08;;;18.60;55.30;;;;;;5053087;28;20175;-70
2022/05/29 07:45:45;;;;;;;5.80;1.08;;;18.60;55.30;;;;;;5052708;28;20746;-69
2022/05/29 07:48:12;;;;;;;3.25;0.90;;;18.70;55.30;;;;;;5053199;28;20189;-69
2022/05/29 07:50:37;;;;;;;2.03;0.85;;;18.70;55.50;;;;;;5052184;28;20270;-70
2022/05/29 07:53:03;;;;;;;3.40;1.23;;;18.70;55.30;;;;;;5052688;28;20270;-69
2022/05/29 07:55:28;;;;;;;2.70;0.90;;;18.80;55.30;;;;;;5052054;28;20179;-69
2022/05/29 07:57:54;;;;;;;1.95;1.10;;;18.90;55.20;;;;;;5052787;28;20179;-68
2022/05/29 08:00:20;;;;;;;6.88;1.60;;;18.90;55.10;;;;;;5052967;28;20230;-72
2022/05/29 08:02:45;;;;;;;5.22;1.20;;;18.90;55.10;;;;;;5051949;28;20544;-65
2022/05/29 08:05:12;;;;;;;3.65;1.17;;;18.80;55.20;;;;;;5052802;28;20233;-68
2022/05/29 08:07:38;;;;;;;3.47;1.30;;;18.80;55.30;;;;;;5052294;28;20206;-68
2022/05/29 08:10:04;;;;;;;3.72;1.20;;;18.80;55.20;;;;;;5051748;28;20626;-70
2022/05/29 08:12:29;;;;;;;3.90;1.00;;;18.80;55.20;;;;;;5052693;28;20270;-71
2022/05/29 08:14:55;;;;;;;2.63;1.15;;;18.90;55.20;;;;;;5052152;28;20220;-71
2022/05/29 08:17:20;;;;;;;2.05;1.38;;;18.90;55.20;;;;;;5051619;28;20641;-71
2022/05/29 08:19:46;;;;;;;2.17;1.10;;;18.90;55.10;;;;;;5052075;28;20182;-72
2022/05/29 08:22:12;;;;;;;2.53;1.10;;;18.90;55.10;;;;;;5052385;28;20171;-69
2022/05/29 08:33:01;;;;;;;2.53;1.02;;;18.90;55.30;;;;;;5051755;28;20576;-72
2022/05/29 08:35:26;;;;;;;1.42;1.08;;;18.90;55.10;;;;;;5052123;28;20287;-72
2022/05/29 08:37:51;;;;;;;2.28;1.10;;;18.90;55.10;;;;;;5051179;28;20259;-74
2022/05/29 08:40:17;;;;;;;4.20;1.35;;;18.90;55.30;;;;;;5052162;28;20183;-74
2022/05/29 08:42:42;;;;;;;1.70;1.00;;;19.00;55.40;;;;;;5051792;28;20178;-73
2022/05/29 08:45:09;;;;;;;3.65;1.08;;;19.00;55.50;;;;;;5051180;28;20542;-73
2022/05/29 08:47:34;;;;;;;4.53;1.20;;;19.00;55.40;;;;;;5050827;28;20573;-73
2022/05/29 08:50:00;;;;;;;2.20;0.80;;;19.10;55.50;;;;;;5052203;28;20193;-73
2022/05/29 08:52:25;;;;;;;2.63;1.00;;;19.10;55.50;;;;;;5050444;28;20520;-73
2022/05/29 08:54:59;;;;;;;2.20;0.85;;;19.10;55.50;;;;;;5051909;28;20171;-73
2022/05/29 08:57:37;;;;;;;2.10;0.95;;;19.10;55.50;;;;;;5052253;28;20232;-73
2022/05/29 09:00:24;;;;;;;4.95;0.90;;;19.10;55.60;;;;;;5050109;28;20228;-74
2022/05/29 09:03:14;;;;;;;1.33;0.90;;;19.10;55.60;;;;;;5050373;28;20167;-69
2022/05/29 09:06:26;;;;;;;2.85;1.02;;;19.10;55.70;;;;;;5048610;28;20246;-69
2022/05/29 09:09:05;;;;;;;3.40;1.20;;;19.00;55.70;;;;;;5034937;28;20183;-68
2022/05/29 09:11:52;;;;;;;2.45;0.90;;;18.90;55.80;;;;;;5050943;28;20194;-70
2022/05/29 09:14:41;;;;;;;4.22;1.30;;;18.90;55.60;;;;;;5050000;28;20206;-70
2022/05/29 09:17:17;;;;;;;4.20;1.20;;;18.90;55.60;;;;;;5050889;28;20187;-69
2022/05/29 09:19:45;;;;;;;2.83;1.10;;;18.90;55.60;;;;;;5050631;28;20187;-72
2022/05/29 09:22:21;;;;;;;3.38;1.40;;;18.90;55.80;;;;;;5049742;28;20178;-71
2022/05/29 09:25:04;;;;;;;2.80;0.90;;;18.80;55.70;;;;;;5051454;28;20226;-71
2022/05/29 09:27:31;;;;;;;1.42;1.10;;;18.80;55.60;;;;;;5050105;28;20175;-71
2022/05/29 09:29:57;;;;;;;3.25;1.23;;;18.80;55.60;;;;;;5050305;28;20187;-71
2022/05/29 09:32:24;;;;;;;2.88;0.80;;;18.90;55.70;;;;;;5051710;28;20241;-71
2022/05/29 09:34:57;;;;;;;2.85;0.90;;;18.90;55.80;;;;;;5049439;28;20669;-70
2022/05/29 09:37:31;;;;;;;3.75;1.00;;;18.90;55.60;;;;;;5052422;28;20540;-68
2022/05/29 09:39:57;;;;;;;4.35;1.10;;;18.90;56.00;;;;;;5054112;28;20179;-65
2022/05/29 09:42:33;;;;;;;5.07;1.25;;;18.90;56.00;;;;;;5053238;28;20179;-72
2022/05/29 09:45:05;;;;;;;6.30;1.00;;;18.90;55.90;;;;;;5046891;28;20285;-73
2022/05/29 09:50:16;;;;;;;2.20;0.80;;;18.90;55.70;;;;;;5052194;28;20174;-71
2022/05/29 09:52:43;;;;;;;4.03;1.10;;;18.90;55.60;;;;;;5055176;28;20175;-71
2022/05/29 09:55:30;;;;;;;3.22;1.00;;;18.90;55.60;;;;;;5053564;28;20246;-72
2022/05/29 09:58:10;;;;;;;3.40;1.42;;;18.90;55.60;;;;;;5053804;28;20187;-72
2022/05/29 10:00:36;;;;;;;3.17;0.85;;;18.90;55.70;;;;;;5053536;28;20252;-75
2022/05/29 10:03:04;;;;;;;6.13;1.40;;;18.90;56.00;;;;;;5053084;28;20284;-70
2022/05/29 10:05:35;;;;;;;4.03;1.10;;;18.90;56.10;;;;;;5053580;28;20217;-69
2022/05/29 10:08:31;;;;;;;3.35;1.23;;;18.90;55.90;;;;;;5053966;28;20230;-70
2022/05/29 10:11:17;;;;;;;4.20;1.40;;;19.00;56.10;;;;;;5052738;28;20175;-71
2022/05/29 10:13:43;;;;;;;3.45;1.10;;;19.00;56.00;;;;;;5053361;28;20182;-70
2022/05/29 10:16:09;;;;;;;4.97;1.15;;;19.00;55.90;;;;;;5054335;28;20323;-71
2022/05/29 10:18:39;;;;;;;4.03;1.20;;;19.00;56.00;;;;;;5053213;28;20658;-71
2022/05/29 10:21:17;;;;;;;4.72;1.00;;;19.00;56.10;;;;;;5054668;28;20275;-71
2022/05/29 10:23:51;;;;;;;3.55;1.00;;;19.00;56.20;;;;;;5052618;28;20167;-71
2022/05/29 10:26:29;;;;;;;4.22;1.08;;;18.90;56.20;;;;;;5053214;28;20641;-71
2022/05/29 10:28:54;;;;;;;3.70;1.08;;;18.90;56.30;;;;;;5053119;28;20234;-71
2022/05/29 10:31:34;;;;;;;2.38;1.10;;;18.90;56.10;;;;;;5052559;28;20179;-72
2022/05/29 10:34:13;;;;;;;1.90;0.93;;;18.90;55.90;;;;;;5053458;28;20270;-73
2022/05/29 10:36:39;;;;;;;3.47;1.17;;;18.80;56.10;;;;;;5053057;28;20654;-69
2022/05/29 10:39:13;;;;;;;5.32;1.25;;;18.80;56.20;;;;;;5053889;28;20190;-69
2022/05/29 10:41:41;;;;;;;4.45;1.20;;;18.80;56.10;;;;;;5054260;28;20179;-71
2022/05/29 10:44:09;;;;;;;2.80;1.30;;;18.80;56.80;;;;;;5054196;28;20678;-74
2022/05/29 10:47:02;;;;;;;2.90;1.13;;;18.80;56.30;;;;;;5052042;28;20626;-71
2022/05/29 10:49:35;;;;;;;2.97;0.90;;;18.80;56.10;;;;;;5054196;28;20175;-71
2022/05/29 10:52:00;;;;;;;3.72;1.33;;;18.80;56.00;;;;;;5052451;28;20233;-70
2022/05/29 10:54:31;;;;;;;5.32;1.20;;;18.90;55.90;;;;;;5054083;28;20171;-73
2022/05/29 10:57:18;;;;;;;1.83;0.80;;;18.90;55.80;;;;;;5053727;28;20179;-71
2022/05/29 11:00:21;;;;;;;4.45;1.30;;;18.90;55.60;;;;;;5052903;28;20175;-73
2022/05/29 11:05:50;;;;;;;3.65;0.85;;;19.00;56.00;;;;;;5051557;28;20218;-73
2022/05/29 11:08:37;;;;;;;2.83;0.85;;;19.10;56.10;;;;;;5052571;28;20190;-72
2022/05/29 11:11:17;;;;;;;4.18;1.20;;;19.10;56.60;;;;;;5052342;28;20582;-73
2022/05/29 11:13:58;;;;;;;2.45;1.05;;;19.10;55.90;;;;;;5051608;28;20179;-73
2022/05/29 11:16:55;;;;;;;3.17;1.00;;;19.10;55.70;;;;;;5053571;28;20273;-73
2022/05/29 11:19:28;;;;;;;3.78;1.50;;;19.10;55.70;;;;;;5052134;28;20179;-72
2022/05/29 11:22:25;;;;;;;2.58;0.90;;;19.20;55.60;;;;;;5053016;28;20519;-69
2022/05/29 11:25:07;;;;;;;2.90;1.30;;;19.20;55.50;;;;;;5051859;28;20211;-73
2022/05/29 11:27:40;;;;;;;2.42;1.00;;;19.20;55.50;;;;;;5051212;28;20175;-72
2022/05/29 11:30:36;;;;;;;1.42;1.10;;;19.30;55.40;;;;;;5053352;28;20183;-71
2022/05/29 11:33:19;;;;;;;4.97;1.35;;;19.30;55.40;;;;;;5053291;28;20184;-70
2022/05/29 11:36:13;;;;;;;3.90;0.88;;;19.30;55.30;;;;;;5050891;28;20175;-72
2022/05/29 11:38:43;;;;;;;1.40;0.77;;;19.30;55.40;;;;;;5052708;28;20179;-69
2022/05/29 11:41:12;;;;;;;1.73;0.95;;;19.30;55.40;;;;;;5051253;28;20171;-68
2022/05/29 11:44:14;;;;;;;2.92;1.13;;;19.30;55.30;;;;;;5052640;28;20197;-68
2022/05/29 11:52:44;;;;;;;2.30;0.90;;;19.40;55.10;;;;;;5051555;28;20303;-67
2022/05/29 11:55:16;;;;;;;3.75;1.05;;;19.40;55.10;;;;;;5050870;28;20198;-68
2022/05/29 11:57:46;;;;;;;2.15;0.95;;;19.40;55.00;;;;;;5051193;28;20183;-69
2022/05/29 12:00:34;;;;;;;1.20;0.90;;;19.40;55.00;;;;;;5050367;28;20715;-69
2022/05/29 12:03:14;;;;;;;3.38;1.13;;;19.40;55.10;;;;;;5051744;28;20182;-68
2022/05/29 12:05:48;;;;;;;1.30;0.65;;;19.40;55.10;;;;;;5052183;28;20602;-67
2022/05/29 12:08:26;;;;;;;2.60;1.40;;;19.40;55.20;;;;;;5052237;28;20311;-68
2022/05/29 12:10:57;;;;;;;2.42;0.90;;;19.30;55.10;;;;;;5050022;28;20660;-68
2022/05/29 12:13:24;;;;;;;2.38;1.05;;;19.30;55.10;;;;;;5052130;28;20696;-68
2022/05/29 12:15:54;;;;;;;2.92;0.95;;;19.30;55.20;;;;;;5050237;28;20175;-68
2022/05/29 12:18:20;;;;;;;2.97;0.93;;;19.30;55.20;;;;;;5051175;28;20186;-68
2022/05/29 12:20:52;;;;;;;5.13;1.70;;;19.30;55.10;;;;;;5050558;28;20167;-68
2022/05/29 12:23:24;;;;;;;1.55;1.10;;;19.40;55.00;;;;;;5050065;28;20176;-68
2022/05/29 12:26:01;;;;;;;2.78;0.95;;;19.40;55.00;;;;;;5050432;28;20297;-68
2022/05/29 12:28:44;;;;;;;2.38;1.00;;;19.40;54.90;;;;;;5050923;28;20263;-68
2022/05/29 12:31:16;;;;;;;3.28;1.10;;;19.40;54.80;;;;;;5051309;28;20266;-68
2022/05/29 12:33:43;;;;;;;1.42;0.80;;;19.50;54.90;;;;;;5050728;28;20183;-68
2022/05/29 12:36:28;;;;;;;2.17;0.88;;;19.50;54.90;;;;;;5050311;28;20712;-68
2022/05/29 12:39:15;;;;;;;2.65;1.00;;;19.40;54.90;;;;;;5049782;28;20185;-68
2022/05/29 12:42:05;;;;;;;2.20;0.73;;;19.40;55.00;;;;;;5051587;28;20190;-68
2022/05/29 12:45:03;;;;;;;2.00;0.98;;;19.30;55.10;;;;;;5050593;28;20206;-68
2022/05/29 12:47:59;;;;;;;3.20;0.95;;;19.20;55.20;;;;;;5050484;28;20236;-68
2022/05/29 12:50:54;;;;;;;1.80;1.00;;;19.10;55.30;;;;;;5050363;28;20193;-68
2022/05/29 12:53:38;;;;;;;1.77;1.10;;;19.10;55.40;;;;;;5050258;28;20638;-68
2022/05/29 12:56:16;;;;;;;2.35;1.33;;;19.10;55.40;;;;;;5051511;28;20179;-68
2022/05/29 12:58:51;;;;;;;3.72;1.00;;;19.10;55.30;;;;;;5049526;28;20179;-69
2022/05/29 13:01:23;;;;;;;2.38;0.75;;;19.10;55.20;;;;;;5051323;28;20218;-69
2022/05/29 13:04:25;;;;;;;0.95;0.80;;;19.20;55.10;;;;;;5049624;28;20646;-68
2022/05/29 13:07:02;;;;;;;2.03;0.88;;;19.20;55.00;;;;;;5049690;28;20187;-68
2022/05/29 13:09:45;;;;;;;1.70;0.82;;;19.20;54.90;;;;;;5050059;28;20341;-68
2022/05/29 13:12:14;;;;;;;1.75;0.88;;;19.30;54.80;;;;;;5051617;28;20179;-68
2022/05/29 13:14:45;;;;;;;1.10;0.85;;;19.40;54.60;;;;;;5054060;28;20175;-68
2022/05/29 13:17:11;;;;;;;4.15;1.27;;;19.40;54.50;;;;;;5054138;28;20171;-68
2022/05/29 13:20:00;;;;;;;1.27;0.77;;;19.40;54.50;;;;;;5054583;28;20175;-68
2022/05/29 13:22:44;;;;;;;1.33;0.75;;;19.40;54.50;;;;;;5055087;28;20533;-68
2022/05/29 13:25:09;;;;;;;1.88;1.00;;;19.40;54.60;;;;;;5055207;28;20302;-68
2022/05/29 13:27:35;;;;;;;1.42;0.75;;;19.30;54.70;;;;;;5052940;28;20530;-68
2022/05/29 13:30:02;;;;;;;3.17;1.13;;;19.30;54.70;;;;;;5053906;28;20237;-69
2022/05/29 13:32:29;;;;;;;2.15;0.60;;;19.30;54.80;;;;;;5053712;28;20199;-69
2022/05/29 13:35:04;;;;;;;0.82;0.57;;;19.30;54.80;;;;;;5053137;28;20178;-69
2022/05/29 13:37:32;;;;;;;1.05;0.68;;;19.30;54.80;;;;;;5054881;28;20201;-68
2022/05/29 13:40:06;;;;;;;1.48;0.70;;;19.20;54.70;;;;;;5054859;28;20178;-68
2022/05/29 13:42:33;;;;;;;2.45;0.70;;;19.20;54.70;;;;;;5054809;28;20719;-69
2022/05/29 13:44:59;;;;;;;1.55;0.80;;;19.30;54.70;;;;;;5054511;28;20214;-68
2022/05/29 13:47:32;;;;;;;1.38;0.70;;;19.20;54.70;;;;;;5053207;28;20240;-68